Time;durP1;ratioP1;P1;durP2;ratioP2;P2;SDS_P1;SDS_P2;PMS_P1;PMS_P2;Temp;Humidity;BMP_temperature;BMP_pressure;BME280_temperature;BME280_humidity;BME280_pressure;Samples;Min_cycle;Max_cycle;Signal;HPM_P1;HPM_P2
2023/09/27 00:01:21;;;;;;;18.23;10.57;;;16.70;99.90;;;;;;2603519;54;20038;31
2023/09/27 00:03:58;;;;;;;13.13;8.18;;;16.70;99.90;;;;;;2603404;54;20245;31
2023/09/27 00:06:34;;;;;;;17.65;11.20;;;16.70;99.90;;;;;;2603137;54;20842;31
2023/09/27 00:09:09;;;;;;;;;;;16.60;99.90;;;;;;2603519;54;20117;31
2023/09/27 00:11:45;;;;;;;15.70;8.65;;;16.70;99.90;;;;;;2603504;54;19953;31
2023/09/27 00:14:24;;;;;;;18.55;9.75;;;16.60;99.90;;;;;;2602428;54;20540;31
2023/09/27 00:17:03;;;;;;;20.23;10.77;;;16.60;99.90;;;;;;2621664;46;20034;31
2023/09/27 00:19:45;;;;;;;17.15;9.98;;;16.60;99.90;;;;;;2602742;54;20942;31
2023/09/27 00:22:24;;;;;;;18.42;10.40;;;16.50;99.90;;;;;;2602985;54;20913;31
2023/09/27 00:24:59;;;;;;;19.27;10.25;;;16.50;99.90;;;;;;2621719;46;20782;31
2023/09/27 00:27:36;;;;;;;22.20;9.40;;;16.50;99.90;;;;;;2602818;54;20031;31
2023/09/27 00:30:17;;;;;;;15.05;8.88;;;16.50;99.90;;;;;;2602952;54;20793;31
2023/09/27 00:32:56;;;;;;;15.73;8.38;;;16.40;99.90;;;;;;2602663;54;20758;31
2023/09/27 00:35:34;;;;;;;17.40;10.00;;;16.30;99.90;;;;;;2603355;54;20030;31
2023/09/27 00:38:12;;;;;;;19.67;10.10;;;16.30;99.90;;;;;;2603120;54;20144;31
2023/09/27 00:40:49;;;;;;;15.43;9.60;;;16.30;99.90;;;;;;2602996;54;20513;31
2023/09/27 00:43:38;;;;;;;12.67;7.90;;;16.30;99.90;;;;;;2621700;46;19989;31
2023/09/27 00:46:19;;;;;;;15.47;9.07;;;16.30;99.90;;;;;;2603174;54;20755;31
2023/09/27 00:48:55;;;;;;;15.73;9.30;;;16.30;99.90;;;;;;2621252;46;21166;31
2023/09/27 00:51:36;;;;;;;14.80;9.05;;;16.30;99.90;;;;;;2611487;46;20077;31
2023/09/27 00:54:18;;;;;;;17.65;9.98;;;16.20;99.90;;;;;;2602221;54;20911;31
2023/09/27 00:56:56;;;;;;;17.20;9.45;;;16.20;99.90;;;;;;2602365;54;20859;31
2023/09/27 00:59:34;;;;;;;19.98;9.48;;;16.20;99.90;;;;;;2602298;54;20033;31
2023/09/27 01:02:13;;;;;;;17.83;9.80;;;16.10;99.90;;;;;;2603203;54;20028;31
2023/09/27 01:04:50;;;;;;;15.63;10.27;;;16.10;99.90;;;;;;2603021;54;20871;31
2023/09/27 01:07:27;;;;;;;;;;;16.00;99.90;;;;;;2603403;54;20053;31
2023/09/27 01:10:03;;;;;;;19.15;10.00;;;16.00;99.90;;;;;;2621550;47;19934;31
2023/09/27 01:12:39;;;;;;;22.70;10.80;;;16.00;99.90;;;;;;2603216;54;20031;31
2023/09/27 01:15:19;;;;;;;19.15;10.85;;;15.90;99.90;;;;;;2602943;54;20039;31
2023/09/27 01:18:01;;;;;;;18.60;10.65;;;15.90;99.90;;;;;;2602376;54;21181;31
2023/09/27 01:20:36;;;;;;;15.75;9.65;;;15.90;99.90;;;;;;2602944;47;20879;31
2023/09/27 01:23:14;;;;;;;19.42;12.15;;;15.80;99.90;;;;;;2602708;54;20865;31
2023/09/27 01:25:53;;;;;;;17.25;10.10;;;15.80;99.90;;;;;;2621624;47;20030;31
2023/09/27 01:28:30;;;;;;;22.17;11.20;;;15.80;99.90;;;;;;2603137;54;20893;31
2023/09/27 01:31:08;;;;;;;;;;;15.80;99.90;;;;;;2603233;54;20030;31
2023/09/27 01:33:43;;;;;;;19.70;10.55;;;15.80;99.90;;;;;;2603644;54;20801;31
2023/09/27 01:36:22;;;;;;;18.73;10.87;;;15.80;99.90;;;;;;2603657;54;20821;31
2023/09/27 01:39:02;;;;;;;21.35;11.57;;;15.80;99.90;;;;;;2702159;39;20686;31
2023/09/27 01:41:40;;;;;;;20.10;11.30;;;15.80;99.90;;;;;;2603654;54;20884;31
2023/09/27 01:44:19;;;;;;;16.52;10.48;;;15.80;99.90;;;;;;2603062;54;20891;31
2023/09/27 01:46:54;;;;;;;21.40;10.10;;;15.70;99.90;;;;;;2603066;54;20854;31
2023/09/27 01:49:32;;;;;;;20.40;11.30;;;15.70;99.90;;;;;;2622107;46;20034;31
2023/09/27 01:52:10;;;;;;;18.70;11.00;;;15.70;99.90;;;;;;2603865;54;20026;31
2023/09/27 01:54:49;;;;;;;17.88;10.73;;;15.70;99.90;;;;;;2603743;54;20048;31
2023/09/27 01:57:31;;;;;;;20.63;11.73;;;15.70;99.90;;;;;;2622341;46;20027;31
2023/09/27 02:00:08;;;;;;;22.20;11.45;;;15.70;99.90;;;;;;2603643;54;20026;31
2023/09/27 02:02:46;;;;;;;18.08;11.13;;;15.70;99.90;;;;;;2603953;54;20023;31
2023/09/27 02:05:23;;;;;;;19.00;10.20;;;15.60;99.90;;;;;;2602957;54;20030;31
2023/09/27 02:07:59;;;;;;;21.50;11.27;;;15.60;99.90;;;;;;2612475;46;20778;31
2023/09/27 02:10:38;;;;;;;20.38;11.50;;;15.60;99.90;;;;;;2603494;54;20880;31
2023/09/27 02:13:15;;;;;;;19.38;10.43;;;15.60;99.90;;;;;;2622203;46;20851;31
2023/09/27 02:15:54;;;;;;;27.50;11.45;;;15.60;99.90;;;;;;2603723;54;20032;31
2023/09/27 02:18:29;;;;;;;29.27;11.43;;;15.50;99.90;;;;;;2603746;54;20057;31
2023/09/27 02:21:09;;;;;;;22.87;9.43;;;15.50;99.90;;;;;;2603393;54;20034;31
2023/09/27 02:26:21;;;;;;;24.58;9.85;;;15.50;99.90;;;;;;2603620;54;20321;31
2023/09/27 02:28:56;;;;;;;16.65;9.85;;;15.40;99.90;;;;;;2622133;46;20037;31
2023/09/27 02:31:31;;;;;;;22.77;11.50;;;15.40;99.90;;;;;;2603370;54;20056;31
2023/09/27 02:34:09;;;;;;;18.38;10.32;;;15.40;99.90;;;;;;2603531;54;20026;31
2023/09/27 02:36:46;;;;;;;19.60;10.00;;;15.40;99.90;;;;;;2603727;54;20018;31
2023/09/27 02:39:25;;;;;;;19.65;11.73;;;15.40;99.90;;;;;;2603452;54;20881;31
2023/09/27 02:42:05;;;;;;;20.77;11.30;;;15.40;99.90;;;;;;2610524;46;20041;31
2023/09/27 02:44:42;;;;;;;22.55;11.20;;;15.30;99.90;;;;;;2621379;46;20023;31
2023/09/27 02:47:18;;;;;;;20.58;11.30;;;15.30;99.90;;;;;;2603752;54;20061;31
2023/09/27 02:49:54;;;;;;;19.33;11.33;;;15.40;99.90;;;;;;2603388;54;20109;31
2023/09/27 02:52:38;;;;;;;23.60;12.87;;;15.50;99.90;;;;;;2603693;54;20053;31
2023/09/27 02:55:15;;;;;;;23.20;11.47;;;15.40;99.90;;;;;;2622112;46;20081;31
2023/09/27 02:57:54;;;;;;;21.65;11.70;;;15.30;99.90;;;;;;2621993;46;20022;31
2023/09/27 03:00:33;;;;;;;18.70;11.93;;;15.30;99.90;;;;;;2621800;46;20127;31
2023/09/27 03:03:13;;;;;;;18.80;11.35;;;15.30;99.90;;;;;;2617967;46;20034;31
2023/09/27 03:05:49;;;;;;;20.00;12.07;;;15.30;99.90;;;;;;2603350;54;20815;31
2023/09/27 03:08:28;;;;;;;54.28;11.10;;;15.30;99.90;;;;;;2616866;46;20247;31
2023/09/27 03:11:08;;;;;;;64.30;11.27;;;15.30;99.90;;;;;;2602630;54;20918;31
2023/09/27 03:13:47;;;;;;;28.77;10.63;;;15.20;99.90;;;;;;2603589;54;20833;31
2023/09/27 03:16:23;;;;;;;54.72;12.43;;;15.20;99.90;;;;;;2602698;54;20041;31
2023/09/27 03:18:59;;;;;;;;;;;15.20;99.90;;;;;;2602820;54;20035;31
2023/09/27 03:21:37;;;;;;;37.50;10.53;;;15.20;99.90;;;;;;2603334;54;19941;31
2023/09/27 03:24:17;;;;;;;34.23;11.00;;;15.20;99.90;;;;;;2603345;54;20026;31
2023/09/27 03:26:55;;;;;;;30.70;11.55;;;15.10;99.90;;;;;;2603465;54;20875;31
2023/09/27 03:29:39;;;;;;;43.25;11.57;;;15.10;99.90;;;;;;2603241;54;20030;31
2023/09/27 03:32:13;;;;;;;35.30;12.35;;;15.10;99.90;;;;;;2603372;54;20972;31
2023/09/27 03:34:49;;;;;;;48.10;11.30;;;15.10;99.90;;;;;;2603168;54;20027;31
2023/09/27 03:37:26;;;;;;;49.50;10.80;;;15.10;99.90;;;;;;2603390;54;20026;31
2023/09/27 03:40:13;;;;;;;36.05;10.65;;;15.10;99.90;;;;;;2602627;54;20089;31
2023/09/27 03:42:50;;;;;;;28.65;11.02;;;15.00;99.90;;;;;;2621386;46;20925;31
2023/09/27 03:45:30;;;;;;;38.60;10.32;;;15.00;99.90;;;;;;2621427;46;20038;31
2023/09/27 03:48:09;;;;;;;40.95;10.50;;;15.10;99.90;;;;;;2603426;54;20022;31
2023/09/27 03:50:45;;;;;;;28.90;10.35;;;15.00;99.90;;;;;;2603024;54;20026;31
2023/09/27 03:53:25;;;;;;;24.20;10.20;;;15.00;99.90;;;;;;2603459;54;20030;31
2023/09/27 03:55:59;;;;;;;20.58;9.55;;;15.00;99.90;;;;;;2603051;54;20930;31
2023/09/27 03:58:37;;;;;;;16.80;10.85;;;15.00;99.90;;;;;;2602657;54;20133;31
2023/09/27 04:01:26;;;;;;;29.15;10.65;;;15.00;99.90;;;;;;2609448;46;20057;31
2023/09/27 04:04:04;;;;;;;;;;;15.00;99.90;;;;;;2603506;54;20936;31
2023/09/27 04:06:45;;;;;;;21.35;9.85;;;15.00;99.90;;;;;;2603320;54;20813;31
2023/09/27 04:09:23;;;;;;;16.05;9.05;;;15.00;99.90;;;;;;2602686;54;20770;31
2023/09/27 04:12:01;;;;;;;24.30;10.25;;;15.00;99.90;;;;;;2621391;46;20909;31
2023/09/27 04:14:41;;;;;;;33.13;10.35;;;15.00;99.90;;;;;;2603040;54;20045;31
2023/09/27 04:17:21;;;;;;;38.78;10.38;;;15.00;99.90;;;;;;2602939;54;20974;31
2023/09/27 04:19:56;;;;;;;39.80;10.77;;;15.00;99.90;;;;;;2603416;54;20180;31
2023/09/27 04:22:31;;;;;;;25.05;10.05;;;15.00;99.90;;;;;;2603180;54;20923;31
2023/09/27 04:25:11;;;;;;;30.57;10.13;;;15.00;99.90;;;;;;2603184;54;19979;31
2023/09/27 04:27:49;;;;;;;29.27;11.23;;;15.00;99.90;;;;;;2603408;54;20026;31
2023/09/27 04:30:28;;;;;;;19.80;10.52;;;15.00;99.90;;;;;;2621963;46;20095;31
2023/09/27 04:33:15;;;;;;;27.70;10.87;;;15.00;99.90;;;;;;2602371;54;20022;31
2023/09/27 04:35:52;;;;;;;16.00;10.18;;;15.00;99.90;;;;;;2602984;54;20034;31
2023/09/27 04:38:26;;;;;;;17.03;10.77;;;14.90;99.90;;;;;;2621602;46;20112;31
2023/09/27 04:41:03;;;;;;;20.80;10.80;;;14.90;99.90;;;;;;2621446;46;20084;31
2023/09/27 04:43:40;;;;;;;;;;;14.90;99.90;;;;;;2603426;54;20851;31
2023/09/27 04:46:16;;;;;;;19.95;9.70;;;14.90;99.90;;;;;;2603300;54;19961;31
2023/09/27 04:49:01;;;;;;;19.55;10.90;;;14.90;99.90;;;;;;2621602;46;20886;31
2023/09/27 04:51:36;;;;;;;21.10;9.85;;;14.90;99.90;;;;;;2607579;46;20018;31
2023/09/27 04:54:12;;;;;;;19.35;11.05;;;14.90;99.90;;;;;;2621675;46;20089;31
2023/09/27 04:56:52;;;;;;;20.45;11.65;;;14.80;99.90;;;;;;2602160;54;20025;31
2023/09/27 04:59:36;;;;;;;16.27;11.43;;;14.80;99.90;;;;;;2620590;46;20063;31
2023/09/27 05:02:12;;;;;;;23.25;10.40;;;14.80;99.90;;;;;;2602770;54;20875;31
2023/09/27 05:04:55;;;;;;;21.93;10.63;;;14.80;99.90;;;;;;2603216;54;20031;31
2023/09/27 05:07:33;;;;;;;29.02;12.85;;;14.80;99.90;;;;;;2702073;39;21384;31
2023/09/27 05:10:17;;;;;;;15.70;9.95;;;14.80;99.90;;;;;;2622322;46;20108;31
2023/09/27 05:12:54;;;;;;;18.52;11.13;;;14.80;99.90;;;;;;2603959;54;20057;31
2023/09/27 05:15:30;;;;;;;23.70;11.20;;;14.80;99.90;;;;;;2702373;39;21484;31
2023/09/27 05:18:07;;;;;;;26.70;10.50;;;14.80;99.90;;;;;;2603032;54;20140;31
2023/09/27 05:20:48;;;;;;;22.08;10.05;;;14.80;99.90;;;;;;2603109;54;20030;31
2023/09/27 05:23:24;;;;;;;32.15;11.13;;;14.80;99.90;;;;;;2701556;39;21512;31
2023/09/27 05:26:02;;;;;;;24.35;11.45;;;14.90;99.90;;;;;;2603655;54;20089;31
2023/09/27 05:28:45;;;;;;;20.67;11.13;;;14.90;99.90;;;;;;2603727;54;20026;31
2023/09/27 05:31:20;;;;;;;20.75;10.73;;;14.90;99.90;;;;;;2622560;46;20117;31
2023/09/27 05:33:58;;;;;;;20.95;11.60;;;14.90;99.90;;;;;;2603910;54;20034;31
2023/09/27 05:36:40;;;;;;;23.57;12.30;;;14.90;99.90;;;;;;2603764;54;20910;31
2023/09/27 05:39:16;;;;;;;18.65;10.00;;;15.00;99.90;;;;;;2621514;46;20033;31
2023/09/27 05:41:55;;;;;;;20.20;10.93;;;15.00;99.90;;;;;;2603813;54;20027;31
2023/09/27 05:44:36;;;;;;;21.50;11.55;;;15.10;99.90;;;;;;2603547;54;20028;31
2023/09/27 05:47:11;;;;;;;19.52;12.10;;;15.10;99.90;;;;;;2603938;54;20036;31
2023/09/27 05:49:47;;;;;;;;;;;15.20;99.90;;;;;;2604139;54;20041;31
2023/09/27 05:52:28;;;;;;;17.73;11.10;;;15.30;99.90;;;;;;2603387;54;19934;31
2023/09/27 05:55:05;;;;;;;19.65;10.95;;;15.20;99.90;;;;;;2603758;54;20030;31
2023/09/27 05:57:44;;;;;;;18.23;11.52;;;15.40;99.90;;;;;;2603492;54;20809;31
2023/09/27 06:00:26;;;;;;;18.15;12.18;;;15.50;99.90;;;;;;2603695;54;20031;31
2023/09/27 06:03:06;;;;;;;18.80;11.97;;;15.60;99.90;;;;;;2603839;54;20035;31
2023/09/27 06:05:46;;;;;;;22.08;12.15;;;15.60;99.90;;;;;;2603446;54;20128;31
2023/09/27 06:08:28;;;;;;;19.33;12.15;;;15.80;99.90;;;;;;2603709;54;20096;31
2023/09/27 06:11:10;;;;;;;19.08;12.90;;;15.90;99.90;;;;;;2603670;54;20026;31
2023/09/27 06:13:48;;;;;;;21.35;13.00;;;16.00;99.90;;;;;;2622206;46;20820;31
2023/09/27 06:16:24;;;;;;;17.17;11.88;;;16.50;99.90;;;;;;2603660;54;20038;31
2023/09/27 06:19:00;;;;;;;20.85;11.43;;;16.80;99.90;;;;;;2602831;54;20030;31
2023/09/27 06:21:43;;;;;;;19.95;11.45;;;17.20;99.90;;;;;;2603636;54;20973;31
2023/09/27 06:24:24;;;;;;;16.00;11.40;;;17.70;99.90;;;;;;2602795;54;20009;31
2023/09/27 06:27:02;;;;;;;16.20;10.60;;;18.30;99.90;;;;;;2603473;54;20023;31
2023/09/27 06:29:38;;;;;;;15.20;10.05;;;18.70;99.90;;;;;;2602987;54;20037;31
2023/09/27 06:32:14;;;;;;;16.45;10.70;;;19.10;99.90;;;;;;2617504;46;20039;31
2023/09/27 06:34:53;;;;;;;15.00;10.70;;;19.40;99.90;;;;;;2603657;54;20072;31
2023/09/27 06:40:08;;;;;;;13.82;9.75;;;20.00;99.90;;;;;;2622130;46;20026;31
2023/09/27 06:42:44;;;;;;;13.77;10.00;;;20.20;99.90;;;;;;2603465;54;20878;31
2023/09/27 06:45:22;;;;;;;12.85;9.15;;;20.40;99.90;;;;;;2602776;54;20951;31
2023/09/27 06:48:03;;;;;;;14.53;9.37;;;20.60;99.90;;;;;;2602722;54;20871;31
2023/09/27 06:50:43;;;;;;;13.00;8.65;;;20.90;99.90;;;;;;2602573;54;20121;31
2023/09/27 06:53:20;;;;;;;11.25;8.43;;;21.20;99.90;;;;;;2602832;54;20045;31
2023/09/27 06:56:05;;;;;;;12.70;8.35;;;21.30;99.90;;;;;;2603452;54;20904;31
2023/09/27 06:58:43;;;;;;;10.48;8.23;;;21.40;99.90;;;;;;2603339;54;20104;31
2023/09/27 07:01:24;;;;;;;9.83;7.30;;;21.40;99.90;;;;;;2602642;54;20728;31
2023/09/27 07:04:00;;;;;;;12.50;8.60;;;21.50;99.90;;;;;;2603470;54;20827;31
2023/09/27 07:06:41;;;;;;;11.00;8.20;;;21.50;99.90;;;;;;2603581;54;20113;31
2023/09/27 07:09:22;;;;;;;10.98;8.00;;;21.50;99.90;;;;;;2603425;54;20105;31
2023/09/27 07:12:03;;;;;;;12.05;8.18;;;21.60;99.90;;;;;;2622273;46;20038;31
2023/09/27 07:14:41;;;;;;;8.43;7.28;;;21.70;99.90;;;;;;2603631;54;20019;31
2023/09/27 07:17:17;;;;;;;11.75;7.28;;;21.80;99.90;;;;;;2603431;54;20820;31
2023/09/27 07:19:56;;;;;;;12.32;7.93;;;21.90;99.90;;;;;;2603531;54;20887;31
2023/09/27 07:22:33;;;;;;;12.38;6.75;;;22.00;99.90;;;;;;2603551;54;20882;31
2023/09/27 07:25:16;;;;;;;9.63;7.30;;;22.10;99.90;;;;;;2602581;54;20035;31
2023/09/27 07:27:55;;;;;;;8.60;6.90;;;22.20;99.90;;;;;;2602834;54;20504;31
2023/09/27 07:30:32;;;;;;;10.88;7.43;;;22.20;99.90;;;;;;2602565;54;20878;31
2023/09/27 07:33:10;;;;;;;9.48;6.75;;;22.30;99.90;;;;;;2603486;54;20034;31
2023/09/27 07:35:52;;;;;;;12.48;6.75;;;22.30;99.90;;;;;;2603443;54;20108;31
2023/09/27 07:38:27;;;;;;;10.82;6.95;;;22.50;99.90;;;;;;2603395;54;20022;31
2023/09/27 07:41:03;;;;;;;10.02;7.22;;;22.50;99.90;;;;;;2603098;54;20760;31
2023/09/27 07:43:44;;;;;;;8.30;6.60;;;22.50;99.90;;;;;;2603523;54;20083;31
2023/09/27 07:46:19;;;;;;;9.23;6.85;;;22.60;99.90;;;;;;2621923;46;20026;31
2023/09/27 07:48:58;;;;;;;9.47;6.67;;;22.60;99.90;;;;;;2602710;54;20036;31
2023/09/27 07:51:35;;;;;;;14.35;7.35;;;22.70;99.90;;;;;;2603365;54;20148;31
2023/09/27 07:54:12;;;;;;;10.00;6.30;;;22.80;99.90;;;;;;2603212;54;20871;31
2023/09/27 07:56:49;;;;;;;12.57;6.83;;;23.10;99.90;;;;;;2603467;54;20265;31
2023/09/27 07:59:33;;;;;;;11.25;6.40;;;23.30;99.90;;;;;;2603211;54;20333;31
2023/09/27 08:02:11;;;;;;;7.90;6.00;;;23.60;99.90;;;;;;2603397;54;20033;31
2023/09/27 08:04:49;;;;;;;13.60;6.40;;;23.90;99.90;;;;;;2603471;54;20192;31
2023/09/27 08:07:27;;;;;;;9.50;6.25;;;24.10;99.90;;;;;;2603339;54;20031;31
2023/09/27 08:10:03;;;;;;;11.25;5.90;;;24.40;99.90;;;;;;2603203;54;20042;31
2023/09/27 08:12:56;;;;;;;9.00;6.05;;;24.60;99.90;;;;;;2603555;54;20037;31
2023/09/27 08:15:39;;;;;;;8.98;6.03;;;24.90;99.90;;;;;;2700895;39;21523;31
2023/09/27 08:18:15;;;;;;;11.80;5.70;;;25.10;99.90;;;;;;2602558;54;20066;31
2023/09/27 08:20:55;;;;;;;9.90;6.00;;;25.30;99.90;;;;;;2602738;54;20077;31
2023/09/27 08:23:32;;;;;;;16.95;6.25;;;25.50;99.90;;;;;;2602207;54;20191;31
2023/09/27 08:26:12;;;;;;;5.75;4.70;;;25.80;99.90;;;;;;2602606;54;20866;31
2023/09/27 08:28:50;;;;;;;6.05;4.60;;;26.00;99.90;;;;;;2603138;54;20023;31
2023/09/27 08:31:36;;;;;;;9.20;5.25;;;26.00;99.90;;;;;;2603393;54;20038;31
2023/09/27 08:34:11;;;;;;;12.00;5.43;;;26.10;99.90;;;;;;2603132;54;20037;31
2023/09/27 08:36:49;;;;;;;8.27;5.07;;;26.50;99.90;;;;;;2602511;54;19942;31
2023/09/27 08:39:39;;;;;;;7.80;4.60;;;26.70;99.90;;;;;;2603085;54;20030;31
2023/09/27 08:42:19;;;;;;;8.55;4.22;;;26.80;99.90;;;;;;2621377;46;20022;31
2023/09/27 08:44:53;;;;;;;5.65;4.03;;;26.90;99.90;;;;;;2603037;54;20078;31
2023/09/27 08:47:33;;;;;;;8.88;4.25;;;27.00;99.90;;;;;;2602717;54;20037;31
2023/09/27 08:50:12;;;;;;;5.70;3.53;;;27.10;99.90;;;;;;2601917;54;20053;31
2023/09/27 08:52:50;;;;;;;8.57;3.93;;;27.10;99.90;;;;;;2602286;54;20965;31
2023/09/27 08:55:29;;;;;;;6.22;3.67;;;27.20;99.90;;;;;;2602668;54;20863;31
2023/09/27 08:58:10;;;;;;;8.45;4.05;;;27.20;99.90;;;;;;2603037;54;20136;31
2023/09/27 09:00:47;;;;;;;6.75;3.88;;;27.50;99.90;;;;;;2621609;46;20030;31
2023/09/27 09:03:26;;;;;;;5.18;3.85;;;27.50;99.90;;;;;;2621422;46;20921;31
2023/09/27 09:06:04;;;;;;;9.20;3.67;;;27.80;99.90;;;;;;2603193;54;20157;31
2023/09/27 09:08:50;;;;;;;6.90;3.95;;;28.00;99.90;;;;;;2603093;54;19952;31
2023/09/27 09:11:26;;;;;;;7.20;3.67;;;28.30;99.90;;;;;;2602386;54;20030;31
2023/09/27 09:14:04;;;;;;;;;;;28.40;99.90;;;;;;2603097;54;20033;31
2023/09/27 09:16:47;;;;;;;9.02;4.75;;;28.40;99.90;;;;;;2621803;47;19957;31
2023/09/27 09:19:31;;;;;;;7.03;3.42;;;28.40;99.90;;;;;;2602991;54;20038;31
2023/09/27 09:22:20;;;;;;;3.97;3.13;;;28.40;99.90;;;;;;2621821;47;20026;31
2023/09/27 09:24:59;;;;;;;11.93;3.75;;;28.40;99.90;;;;;;2603297;54;20242;31
2023/09/27 09:27:43;;;;;;;5.20;3.08;;;28.50;99.90;;;;;;2602364;54;20100;31
2023/09/27 09:30:25;;;;;;;6.53;3.22;;;28.40;99.90;;;;;;2603160;54;20093;31
2023/09/27 09:33:00;;;;;;;6.50;3.73;;;28.50;99.90;;;;;;2603116;54;20038;31
2023/09/27 09:35:42;;;;;;;9.77;3.83;;;28.50;99.90;;;;;;2616223;47;20088;31
2023/09/27 09:38:29;;;;;;;6.13;3.85;;;28.40;99.90;;;;;;2773152;31;21143;31
2023/09/27 09:41:03;;;;;;;7.07;3.30;;;28.30;99.90;;;;;;2701228;39;21540;31
2023/09/27 09:43:39;;;;;;;;;;;28.40;99.90;;;;;;2621648;47;20030;31
2023/09/27 09:46:20;;;;;;;6.95;3.05;;;28.50;99.90;;;;;;2621857;47;19989;31
2023/09/27 09:48:57;;;;;;;3.75;3.20;;;28.60;99.90;;;;;;2701861;39;21010;31
2023/09/27 09:51:37;;;;;;;6.47;3.38;;;28.60;99.90;;;;;;2621478;47;20082;31
2023/09/27 09:54:16;;;;;;;4.90;3.85;;;28.60;99.90;;;;;;2603623;54;20046;31
2023/09/27 09:56:52;;;;;;;8.95;3.20;;;28.70;99.90;;;;;;2603906;54;20894;31
2023/09/27 09:59:48;;;;;;;5.13;3.30;;;28.80;99.90;;;;;;2603204;54;20042;31
2023/09/27 10:02:26;;;;;;;7.40;3.20;;;28.70;99.90;;;;;;2602951;54;20035;31
2023/09/27 10:05:08;;;;;;;4.35;2.97;;;28.80;99.90;;;;;;2603777;54;20917;31
2023/09/27 10:07:44;;;;;;;6.63;3.47;;;28.80;99.90;;;;;;2603985;54;20780;31
2023/09/27 10:10:39;;;;;;;6.00;2.60;;;28.80;99.90;;;;;;2603683;54;20041;31
2023/09/27 10:15:54;;;;;;;8.05;3.35;;;28.90;99.90;;;;;;2602904;54;19946;31
2023/09/27 10:18:36;;;;;;;5.97;3.08;;;28.90;99.90;;;;;;2622280;46;20061;31
2023/09/27 10:21:13;;;;;;;5.05;2.75;;;28.80;99.90;;;;;;2603799;54;20768;31
2023/09/27 10:24:01;;;;;;;6.53;2.83;;;28.80;99.90;;;;;;2603781;54;20030;31
2023/09/27 10:26:45;;;;;;;6.80;3.00;;;28.80;99.90;;;;;;2603721;54;20033;31
2023/09/27 10:29:22;;;;;;;7.50;3.50;;;28.80;99.90;;;;;;2603578;54;20030;31
2023/09/27 10:31:55;;;;;;;7.85;3.00;;;28.70;99.90;;;;;;2622394;46;20243;31
2023/09/27 10:34:44;;;;;;;4.32;2.80;;;28.70;99.90;;;;;;2603177;54;20030;31
2023/09/27 10:37:51;;;;;;;6.65;2.97;;;28.70;99.90;;;;;;2603807;54;20128;31
2023/09/27 10:40:29;;;;;;;6.10;3.15;;;28.60;99.90;;;;;;2603493;54;20747;31
2023/09/27 10:43:14;;;;;;;6.90;3.40;;;28.50;99.90;;;;;;2622327;46;20030;31
2023/09/27 10:45:59;;;;;;;4.80;3.08;;;28.50;99.90;;;;;;2621818;46;21920;31
2023/09/27 10:48:42;;;;;;;5.00;3.15;;;28.40;99.90;;;;;;2603739;54;20101;31
2023/09/27 10:51:17;;;;;;;4.65;2.50;;;28.50;99.90;;;;;;2603841;54;20034;31
2023/09/27 10:53:53;;;;;;;5.75;2.97;;;28.40;99.90;;;;;;2783628;31;20026;31
2023/09/27 10:56:33;;;;;;;3.58;2.58;;;28.40;99.90;;;;;;2603622;54;20923;31
2023/09/27 10:59:13;;;;;;;4.30;2.87;;;28.30;99.70;;;;;;2622003;46;20038;31
2023/09/27 11:01:49;;;;;;;3.90;2.63;;;28.20;99.90;;;;;;2702399;39;21445;31
2023/09/27 11:04:25;;;;;;;9.23;3.10;;;28.20;99.90;;;;;;2602418;54;20053;31
2023/09/27 11:07:04;;;;;;;5.28;3.10;;;28.10;99.40;;;;;;2622359;46;19934;31
2023/09/27 11:09:46;;;;;;;5.03;3.00;;;28.10;99.60;;;;;;2702442;39;21430;31
2023/09/27 11:12:25;;;;;;;5.85;2.70;;;28.10;99.70;;;;;;2603503;54;20085;31
2023/09/27 11:15:05;;;;;;;3.93;2.67;;;28.00;99.90;;;;;;2622090;46;20141;31
2023/09/27 11:17:42;;;;;;;8.80;3.38;;;28.00;99.90;;;;;;2603510;54;20034;31
2023/09/27 11:20:21;;;;;;;7.00;2.80;;;28.00;99.30;;;;;;2610713;46;20031;31
2023/09/27 11:22:57;;;;;;;4.70;2.75;;;28.10;99.70;;;;;;2603439;54;20060;31
2023/09/27 11:25:34;;;;;;;7.90;2.90;;;28.00;98.50;;;;;;2603470;54;20830;31
2023/09/27 11:28:17;;;;;;;3.67;2.70;;;28.00;98.50;;;;;;2603570;54;20022;31
2023/09/27 11:31:04;;;;;;;7.03;3.00;;;28.00;98.40;;;;;;2603608;54;20081;31
2023/09/27 11:33:42;;;;;;;3.95;2.47;;;28.00;98.50;;;;;;2603454;54;20867;31
2023/09/27 11:36:17;;;;;;;5.10;3.10;;;27.90;98.40;;;;;;2603527;54;20022;31
2023/09/27 11:38:55;;;;;;;6.47;2.50;;;27.90;97.40;;;;;;2603747;54;20034;31
2023/09/27 11:41:40;;;;;;;4.13;2.65;;;27.80;96.90;;;;;;2603291;54;20038;31
2023/09/27 11:44:23;;;;;;;7.90;3.08;;;27.80;96.30;;;;;;2604330;46;19945;31
2023/09/27 11:47:12;;;;;;;6.38;2.70;;;27.80;97.20;;;;;;2603587;54;20839;31
2023/09/27 11:49:49;;;;;;;6.03;2.63;;;27.80;96.70;;;;;;2603430;54;20116;31
2023/09/27 11:52:28;;;;;;;7.43;3.00;;;27.70;96.40;;;;;;2617526;46;20037;31
2023/09/27 11:55:06;;;;;;;4.07;2.50;;;27.70;96.40;;;;;;2602519;54;20876;31
2023/09/27 11:57:41;;;;;;;4.05;2.80;;;27.70;96.90;;;;;;2621217;46;20031;31
2023/09/27 12:00:19;;;;;;;9.63;3.00;;;27.70;96.40;;;;;;2602584;54;20093;31
2023/09/27 12:03:01;;;;;;;3.72;2.30;;;27.70;97.50;;;;;;2602767;54;20034;31
2023/09/27 12:05:39;;;;;;;6.30;2.95;;;27.60;96.80;;;;;;2603102;54;20026;31
2023/09/27 12:08:16;;;;;;;7.00;2.92;;;27.70;96.70;;;;;;2603260;54;20847;31
2023/09/27 12:10:54;;;;;;;6.80;2.40;;;27.70;96.20;;;;;;2603271;54;20121;31
2023/09/27 12:13:32;;;;;;;8.48;2.88;;;27.60;96.10;;;;;;2603486;54;20138;31
2023/09/27 12:16:10;;;;;;;4.93;2.67;;;27.60;96.90;;;;;;2603105;54;20078;31
2023/09/27 12:18:48;;;;;;;8.68;2.80;;;27.50;96.10;;;;;;2700935;39;21477;31
2023/09/27 12:21:24;;;;;;;4.47;2.65;;;27.50;95.40;;;;;;2621487;46;20105;31
2023/09/27 12:24:01;;;;;;;;;;;27.50;96.40;;;;;;2603533;54;21006;31
2023/09/27 12:26:38;;;;;;;6.78;2.88;;;27.40;95.70;;;;;;2602612;54;20020;31
2023/09/27 12:29:12;;;;;;;4.80;2.63;;;27.30;95.50;;;;;;2702253;39;20987;31
2023/09/27 12:31:50;;;;;;;4.55;2.75;;;27.20;95.60;;;;;;2602980;54;20875;31
2023/09/27 12:34:31;;;;;;;5.82;2.47;;;27.20;95.40;;;;;;2603111;54;20891;31
2023/09/27 12:37:07;;;;;;;6.35;2.83;;;27.20;96.10;;;;;;2602621;54;20863;31
2023/09/27 12:39:43;;;;;;;6.57;2.88;;;27.10;95.70;;;;;;2618146;46;20931;31
2023/09/27 12:42:23;;;;;;;7.15;2.55;;;27.10;95.60;;;;;;2621605;46;20033;31
2023/09/27 12:45:09;;;;;;;5.43;2.73;;;27.00;94.90;;;;;;2621072;46;20026;31
2023/09/27 12:47:46;;;;;;;5.60;2.20;;;27.00;95.60;;;;;;2603120;54;20962;31
2023/09/27 12:50:26;;;;;;;7.32;3.20;;;27.00;95.60;;;;;;2621156;46;20855;31
2023/09/27 12:53:04;;;;;;;5.95;2.88;;;27.00;95.00;;;;;;2603102;54;20919;31
2023/09/27 12:55:47;;;;;;;4.10;2.27;;;26.90;94.80;;;;;;2602283;54;20895;31
2023/09/27 12:58:27;;;;;;;5.87;2.57;;;26.90;95.40;;;;;;2620997;46;20084;31
2023/09/27 13:01:04;;;;;;;3.92;2.42;;;26.90;95.40;;;;;;2602450;54;20254;31
2023/09/27 13:03:41;;;;;;;4.20;2.33;;;26.90;95.50;;;;;;2602446;54;20940;31
2023/09/27 13:06:19;;;;;;;6.07;2.87;;;26.90;94.70;;;;;;2621535;46;20033;31
2023/09/27 13:08:57;;;;;;;5.18;3.05;;;26.90;94.30;;;;;;2602503;54;20985;31
2023/09/27 13:11:36;;;;;;;4.43;2.70;;;26.90;94.60;;;;;;2621521;47;20050;31
2023/09/27 13:14:17;;;;;;;3.80;2.53;;;27.00;94.50;;;;;;2621238;47;20834;31
2023/09/27 13:16:53;;;;;;;3.65;2.17;;;26.90;94.00;;;;;;2606249;47;20784;31
2023/09/27 13:19:31;;;;;;;;;;;26.90;94.30;;;;;;2603275;54;20053;31
2023/09/27 13:22:11;;;;;;;5.55;2.40;;;26.90;93.80;;;;;;2610896;47;19942;31
2023/09/27 13:24:52;;;;;;;5.95;2.53;;;26.90;93.70;;;;;;2603139;54;20026;31
2023/09/27 13:27:29;;;;;;;3.08;2.47;;;26.80;93.90;;;;;;2603591;47;20859;31
2023/09/27 13:30:10;;;;;;;3.60;2.38;;;26.90;94.20;;;;;;2603847;54;20035;31
2023/09/27 13:33:06;;;;;;;4.38;2.35;;;26.90;94.30;;;;;;2622153;46;20054;31
2023/09/27 13:35:44;;;;;;;5.50;2.45;;;26.90;94.70;;;;;;2603773;54;20165;31
2023/09/27 13:38:26;;;;;;;5.32;2.67;;;26.90;95.10;;;;;;2603921;54;20034;31
2023/09/27 13:41:02;;;;;;;3.70;2.80;;;26.80;94.30;;;;;;2604093;54;21880;31
2023/09/27 13:43:42;;;;;;;4.03;2.40;;;26.90;94.60;;;;;;2602994;54;20035;31
2023/09/27 13:46:22;;;;;;;6.47;2.70;;;26.80;94.40;;;;;;2622365;46;20034;31
2023/09/27 13:48:58;;;;;;;4.35;2.40;;;26.90;94.70;;;;;;2603749;54;20145;31
2023/09/27 13:51:38;;;;;;;4.50;2.67;;;26.80;94.20;;;;;;2603846;54;20026;31
2023/09/27 13:54:23;;;;;;;4.87;2.53;;;26.80;94.30;;;;;;2604035;54;20034;31
2023/09/27 13:57:02;;;;;;;5.70;2.70;;;26.80;94.10;;;;;;2603554;54;21070;31
2023/09/27 13:59:41;;;;;;;5.07;2.28;;;26.80;94.00;;;;;;2603880;54;20914;31